createdAt,value
2018-07-10T00:02:26.295Z,17.40
2018-07-10T00:07:31.347Z,17.40
2018-07-10T00:10:10.775Z,17.40
2018-07-10T00:12:39.702Z,17.20
2018-07-10T00:15:07.997Z,17.20
2018-07-10T00:17:36.271Z,17.20
2018-07-10T00:20:04.690Z,17.10
2018-07-10T00:22:32.968Z,17.10
2018-07-10T00:25:01.267Z,17.20
2018-07-10T00:27:29.519Z,17.20
2018-07-10T00:29:57.922Z,17.20
2018-07-10T00:32:26.195Z,17.20
2018-07-10T00:34:54.522Z,17.10
2018-07-10T00:37:22.799Z,17.10
2018-07-10T00:39:51.063Z,17.10
2018-07-10T00:42:19.361Z,17.00
2018-07-10T00:44:47.687Z,17.00
2018-07-10T00:47:15.978Z,16.80
2018-07-10T00:49:44.271Z,16.80
2018-07-10T00:52:14.282Z,16.70
2018-07-10T00:54:42.593Z,16.60
2018-07-10T00:57:10.875Z,16.50
2018-07-10T00:59:39.180Z,16.40
2018-07-10T01:02:07.474Z,16.40
2018-07-10T01:04:35.754Z,16.40
2018-07-10T01:07:04.123Z,16.40
2018-07-10T01:09:32.381Z,16.50
2018-07-10T01:12:00.674Z,16.50
2018-07-10T01:14:29.021Z,16.60
2018-07-10T01:16:57.348Z,16.60
2018-07-10T01:19:25.626Z,16.60
2018-07-10T01:21:53.922Z,16.60
2018-07-10T01:24:22.203Z,16.50
2018-07-10T01:26:50.780Z,16.50
2018-07-10T01:29:24.401Z,16.50
2018-07-10T01:31:53.334Z,16.40
2018-07-10T01:34:22.146Z,16.40
2018-07-10T01:36:50.682Z,16.40
2018-07-10T01:39:18.948Z,16.40
2018-07-10T01:41:47.282Z,16.40
2018-07-10T01:44:15.551Z,16.40
2018-07-10T01:46:44.188Z,16.40
2018-07-10T01:49:12.458Z,16.40
2018-07-10T01:51:40.742Z,16.40
2018-07-10T01:54:09.027Z,16.40
2018-07-10T01:56:37.369Z,16.30
2018-07-10T01:59:05.917Z,16.30
2018-07-10T02:01:34.220Z,16.30
2018-07-10T02:04:02.515Z,16.30
2018-07-10T02:06:31.015Z,16.20
2018-07-10T02:08:59.745Z,16.20
2018-07-10T02:11:27.990Z,16.20
2018-07-10T02:13:56.281Z,16.10
2018-07-10T02:16:24.551Z,16.10
2018-07-10T02:18:52.829Z,16.10
2018-07-10T02:21:21.155Z,16.10
2018-07-10T02:23:49.447Z,16.10
2018-07-10T02:26:20.091Z,16.10
2018-07-10T02:28:49.176Z,16.10
2018-07-10T02:31:17.674Z,16.20
2018-07-10T02:33:45.951Z,16.20
2018-07-10T02:36:14.223Z,16.10
2018-07-10T02:38:44.498Z,16.10
2018-07-10T02:41:15.162Z,16.10
2018-07-10T02:43:46.008Z,16.10
2018-07-10T02:46:14.283Z,16.20
2018-07-10T02:48:42.556Z,16.20
2018-07-10T02:51:12.254Z,16.10
2018-07-10T02:53:42.431Z,16.10
2018-07-10T02:56:13.268Z,16.10
2018-07-10T02:58:41.547Z,16.10
2018-07-10T03:01:09.832Z,16.00
2018-07-10T03:03:40.366Z,15.90
2018-07-10T03:06:08.642Z,15.90
2018-07-10T03:08:37.147Z,15.80
2018-07-10T03:11:05.656Z,15.80
2018-07-10T03:13:34.279Z,15.70
2018-07-10T03:16:02.542Z,15.80
2018-07-10T03:18:31.605Z,15.90
2018-07-10T03:20:59.879Z,15.90
2018-07-10T03:25:56.132Z,16.00
2018-07-10T03:28:24.447Z,16.00
2018-07-10T03:30:52.718Z,16.00
2018-07-10T03:33:21.071Z,16.10
2018-07-10T03:35:49.363Z,16.10
2018-07-10T03:38:17.641Z,16.20
2018-07-10T03:40:45.919Z,16.10
2018-07-10T03:43:14.200Z,16.20
2018-07-10T03:45:42.473Z,16.20
2018-07-10T03:48:10.735Z,16.20
2018-07-10T03:53:07.179Z,16.10
2018-07-10T03:55:36.893Z,16.10
2018-07-10T03:58:05.272Z,16.20
2018-07-10T04:00:34.502Z,16.20
2018-07-10T04:03:03.130Z,16.20
2018-07-10T04:05:31.430Z,16.20
2018-07-10T04:07:59.778Z,16.20
2018-07-10T04:10:30.126Z,16.20
2018-07-10T04:13:32.183Z,16.20
2018-07-10T04:16:02.267Z,16.20
2018-07-10T04:18:32.128Z,16.20
2018-07-10T04:21:06.671Z,16.20
2018-07-10T04:23:38.446Z,16.20
2018-07-10T04:26:11.776Z,16.20
2018-07-10T04:28:40.801Z,16.30
2018-07-10T04:31:25.887Z,16.30
2018-07-10T04:33:54.307Z,16.40
2018-07-10T04:36:22.642Z,16.40
2018-07-10T04:38:55.111Z,16.40
2018-07-10T04:41:26.571Z,16.50
2018-07-10T04:44:11.686Z,16.60
2018-07-10T04:46:44.178Z,16.70
2018-07-10T04:49:29.143Z,16.70
2018-07-10T04:52:07.335Z,16.70
2018-07-10T04:54:45.774Z,16.70
2018-07-10T04:57:15.793Z,16.70
2018-07-10T04:59:44.316Z,16.80
2018-07-10T05:02:13.253Z,16.70
2018-07-10T05:04:41.649Z,16.70
2018-07-10T05:07:11.802Z,16.60
2018-07-10T05:09:41.931Z,16.50
2018-07-10T05:12:10.302Z,16.40
2018-07-10T05:14:41.865Z,16.40
2018-07-10T05:17:10.163Z,16.40
2018-07-10T05:19:38.496Z,16.40
2018-07-10T05:22:06.788Z,16.50
2018-07-10T05:24:35.056Z,16.60
2018-07-10T05:27:03.330Z,16.70
2018-07-10T05:29:31.595Z,16.80
2018-07-10T05:31:59.879Z,16.80
2018-07-10T05:34:28.160Z,17.00
2018-07-10T05:39:24.441Z,17.00
2018-07-10T05:41:52.691Z,16.90
2018-07-10T05:44:22.702Z,17.00
2018-07-10T05:46:51.026Z,17.00
2018-07-10T05:49:19.346Z,17.10
2018-07-10T05:51:50.720Z,17.10
2018-07-10T05:54:18.999Z,17.20
2018-07-10T05:56:47.296Z,17.20
2018-07-10T05:59:15.597Z,17.20
2018-07-10T06:01:44.095Z,17.40
2018-07-10T06:04:15.701Z,17.40
2018-07-10T06:06:44.503Z,17.40
2018-07-10T06:09:13.727Z,17.50
2018-07-10T06:11:42.027Z,17.50
2018-07-10T06:14:10.305Z,17.60
2018-07-10T06:16:39.250Z,17.70
2018-07-10T06:19:07.527Z,17.80
2018-07-10T06:21:38.918Z,17.80
2018-07-10T06:24:09.897Z,17.80
2018-07-10T06:26:39.987Z,18.00
2018-07-10T06:29:08.289Z,18.10
2018-07-10T06:31:44.898Z,18.20
2018-07-10T06:34:13.175Z,18.30
2018-07-10T06:36:47.318Z,18.20
2018-07-10T06:39:15.713Z,18.20
2018-07-10T06:41:50.176Z,18.20
2018-07-10T06:44:19.307Z,18.30
2018-07-10T06:46:54.196Z,18.50
2018-07-10T06:49:33.930Z,18.60
2018-07-10T06:52:11.581Z,18.70
2018-07-10T06:54:53.097Z,18.50
2018-07-10T06:57:29.675Z,18.40
2018-07-10T07:00:01.157Z,18.50
2018-07-10T07:02:30.084Z,18.60
2018-07-10T07:04:58.371Z,18.70
2018-07-10T07:07:26.645Z,19.00
2018-07-10T07:09:55.101Z,19.10
2018-07-10T07:12:23.367Z,19.30
2018-07-10T07:14:51.648Z,19.40
2018-07-10T07:17:19.926Z,19.40
2018-07-10T07:19:48.182Z,19.30
2018-07-10T07:22:16.456Z,19.20
2018-07-10T07:24:44.751Z,19.00
2018-07-10T07:27:13.027Z,18.80
2018-07-10T07:29:41.291Z,18.70
2018-07-10T07:32:09.683Z,18.70
2018-07-10T07:34:38.048Z,18.60
2018-07-10T07:37:06.770Z,18.40
2018-07-10T07:39:35.410Z,18.30
2018-07-10T07:42:03.844Z,18.30
2018-07-10T07:44:32.227Z,18.50
2018-07-10T07:47:00.507Z,18.80
2018-07-10T07:49:29.927Z,19.40
2018-07-10T07:51:58.276Z,20.40
2018-07-10T07:54:26.821Z,21.40
2018-07-10T07:56:55.313Z,22.40
2018-07-10T07:59:23.724Z,22.70
2018-07-10T08:01:52.144Z,22.00
2018-07-10T08:04:20.425Z,21.10
2018-07-10T08:06:48.698Z,20.60
2018-07-10T08:09:17.327Z,20.50
2018-07-10T08:11:45.827Z,20.50
2018-07-10T08:14:15.524Z,20.40
2018-07-10T08:16:43.931Z,20.40
2018-07-10T08:19:13.117Z,20.50
2018-07-10T08:21:41.371Z,20.40
2018-07-10T08:24:09.646Z,19.80
2018-07-10T08:26:37.914Z,19.60
2018-07-10T08:29:06.215Z,19.30
2018-07-10T08:31:34.492Z,19.30
2018-07-10T08:34:02.866Z,19.30
2018-07-10T08:36:31.066Z,19.20
2018-07-10T08:38:59.339Z,19.40
2018-07-10T08:41:28.746Z,19.40
2018-07-10T08:43:57.024Z,19.70
2018-07-10T08:46:27.021Z,19.90
2018-07-10T08:48:55.640Z,20.50
2018-07-10T08:51:23.910Z,20.80
2018-07-10T08:53:56.418Z,21.00
2018-07-10T08:56:25.119Z,21.60
2018-07-10T08:58:53.430Z,21.40
2018-07-10T09:01:21.706Z,21.20
2018-07-10T09:03:50.425Z,21.40
2018-07-10T09:06:18.727Z,21.70
2018-07-10T09:08:47.008Z,22.30
2018-07-10T09:11:15.270Z,23.10
2018-07-10T09:13:43.545Z,24.50
2018-07-10T09:16:11.814Z,25.70
2018-07-10T09:18:40.100Z,26.00
2018-07-10T09:21:08.374Z,26.30
2018-07-10T09:23:36.664Z,26.70
2018-07-10T09:26:06.453Z,27.40
2018-07-10T09:28:36.667Z,28.40
2018-07-10T09:31:05.906Z,28.90
2018-07-10T09:33:35.140Z,29.60
2018-07-10T09:36:04.293Z,30.30
2018-07-10T09:38:33.412Z,29.60
2018-07-10T09:41:02.222Z,30.50
2018-07-10T09:43:30.497Z,30.90
2018-07-10T09:45:59.468Z,32.60
2018-07-10T09:48:27.764Z,32.10
2018-07-10T09:50:56.061Z,29.70
2018-07-10T09:53:24.350Z,28.60
2018-07-10T09:55:52.619Z,28.30
2018-07-10T09:58:22.150Z,27.60
2018-07-10T10:00:57.778Z,27.50
2018-07-10T10:03:26.126Z,28.10
2018-07-10T10:05:54.378Z,27.30
2018-07-10T10:08:22.670Z,26.20
2018-07-10T10:10:50.963Z,25.80
2018-07-10T10:13:19.268Z,25.50
2018-07-10T10:15:47.557Z,25.80
2018-07-10T10:18:15.857Z,26.60
2018-07-10T10:20:44.226Z,26.00
2018-07-10T10:23:13.365Z,25.30
2018-07-10T10:25:45.955Z,25.20
2018-07-10T10:28:14.207Z,25.00
2018-07-10T10:30:42.475Z,24.40
2018-07-10T10:33:11.187Z,23.40
2018-07-10T10:35:39.549Z,22.60
2018-07-10T10:38:07.860Z,22.10
2018-07-10T10:40:38.559Z,21.50
2018-07-10T10:43:09.802Z,20.90
2018-07-10T10:45:40.641Z,20.90
2018-07-10T10:48:09.359Z,20.80
2018-07-10T10:50:38.822Z,20.70
2018-07-10T10:53:07.343Z,20.50
2018-07-10T10:55:36.422Z,20.60
2018-07-10T10:58:05.254Z,20.60
2018-07-10T11:00:33.568Z,20.40
2018-07-10T11:03:02.168Z,20.40
2018-07-10T11:05:30.868Z,20.60
2018-07-10T11:08:00.408Z,21.00
2018-07-10T11:10:29.248Z,21.10
2018-07-10T11:12:57.604Z,20.80
2018-07-10T11:15:25.952Z,20.90
2018-07-10T11:18:05.054Z,21.00
2018-07-10T11:21:08.316Z,21.00
2018-07-10T11:23:48.306Z,20.30
2018-07-10T11:26:25.594Z,20.20
2018-07-10T11:28:54.570Z,20.10
2018-07-10T11:31:22.891Z,19.80
2018-07-10T11:33:51.162Z,19.90
2018-07-10T11:36:19.479Z,19.80
2018-07-10T11:38:47.780Z,19.70
2018-07-10T11:41:16.658Z,19.30
2018-07-10T11:43:45.030Z,19.10
2018-07-10T11:46:13.395Z,19.00
2018-07-10T11:48:41.829Z,19.00
2018-07-10T11:51:10.129Z,18.80
2018-07-10T11:53:39.045Z,18.90
2018-07-10T11:56:08.242Z,18.80
2018-07-10T11:58:36.607Z,18.80
2018-07-10T12:01:04.930Z,18.70
2018-07-10T12:03:40.503Z,18.70
2018-07-10T12:06:09.822Z,18.90
2018-07-10T12:08:38.106Z,19.00
2018-07-10T12:11:16.968Z,19.20
2018-07-10T12:13:45.576Z,19.60
2018-07-10T12:16:14.397Z,19.50
2018-07-10T12:18:42.707Z,19.70
2018-07-10T12:21:13.382Z,20.20
2018-07-10T12:23:41.706Z,20.30
2018-07-10T12:26:10.178Z,20.20
2018-07-10T12:28:38.483Z,20.70
2018-07-10T12:31:06.775Z,20.70
2018-07-10T12:33:35.073Z,20.50
2018-07-10T12:36:03.771Z,20.50
2018-07-10T12:38:32.246Z,20.50
2018-07-10T12:41:00.535Z,20.70
2018-07-10T12:43:28.983Z,20.60
2018-07-10T12:45:57.285Z,20.60
2018-07-10T12:50:53.596Z,20.40
2018-07-10T12:53:21.918Z,20.20
2018-07-10T12:55:50.443Z,20.50
2018-07-10T12:58:18.846Z,20.50
2018-07-10T13:00:47.178Z,20.30
2018-07-10T13:03:16.353Z,20.50
2018-07-10T13:05:47.125Z,20.70
2018-07-10T13:08:15.630Z,21.10
2018-07-10T13:10:44.164Z,20.80
2018-07-10T13:13:12.534Z,20.90
2018-07-10T13:15:40.975Z,20.80
2018-07-10T13:18:09.659Z,21.40
2018-07-10T13:20:38.092Z,21.50
2018-07-10T13:23:06.710Z,21.70
2018-07-10T13:25:35.060Z,22.00
2018-07-10T13:30:32.271Z,22.80
2018-07-10T13:33:00.686Z,22.80
2018-07-10T13:35:29.887Z,22.60
2018-07-10T13:37:58.481Z,22.20
2018-07-10T13:40:27.607Z,22.00
2018-07-10T13:42:58.096Z,21.90
2018-07-10T13:45:27.599Z,21.80
2018-07-10T13:47:55.971Z,21.50
2018-07-10T13:50:26.269Z,21.40
2018-07-10T13:52:56.276Z,21.50
2018-07-10T13:55:25.248Z,21.60
2018-07-10T13:58:03.807Z,21.40
2018-07-10T14:00:35.124Z,21.00
2018-07-10T14:03:03.400Z,20.80
2018-07-10T14:05:31.695Z,20.60
2018-07-10T14:08:00.032Z,20.50
2018-07-10T14:12:56.293Z,20.40
2018-07-10T14:15:24.994Z,20.20
2018-07-10T14:17:53.814Z,20.10
2018-07-10T14:20:23.214Z,19.90
2018-07-10T14:22:51.860Z,20.10
2018-07-10T14:25:20.602Z,20.30
2018-07-10T14:27:50.372Z,20.70
2018-07-10T14:30:18.697Z,20.90
2018-07-10T14:32:48.011Z,21.40
2018-07-10T14:35:16.342Z,22.00
2018-07-10T14:37:44.642Z,21.90
2018-07-10T14:40:13.181Z,22.10
2018-07-10T14:42:41.469Z,21.80
2018-07-10T14:45:09.795Z,21.30
2018-07-10T14:47:38.500Z,21.40
2018-07-10T14:50:06.817Z,21.40
2018-07-10T14:52:37.052Z,21.60
2018-07-10T14:55:05.388Z,21.70
2018-07-10T14:57:34.326Z,21.70
2018-07-10T15:00:02.715Z,21.60
2018-07-10T15:02:31.020Z,21.60
2018-07-10T15:04:59.303Z,21.20
2018-07-10T15:07:29.352Z,21.10
2018-07-10T15:10:01.540Z,21.40
2018-07-10T15:14:58.210Z,21.90
2018-07-10T15:17:32.047Z,22.20
2018-07-10T15:20:01.359Z,22.10
2018-07-10T15:22:29.775Z,21.80
2018-07-10T15:24:58.104Z,21.70
2018-07-10T15:27:26.374Z,21.60
2018-07-10T15:29:54.747Z,21.60
2018-07-10T15:32:23.039Z,21.70
2018-07-10T15:34:51.454Z,21.90
2018-07-10T15:37:20.117Z,22.10
2018-07-10T15:39:48.406Z,22.30
2018-07-10T15:42:17.043Z,22.30
2018-07-10T15:44:45.319Z,22.50
2018-07-10T15:47:13.596Z,22.60
2018-07-10T15:49:41.870Z,22.60
2018-07-10T15:52:10.156Z,22.50
2018-07-10T15:57:06.835Z,21.90
2018-07-10T15:59:35.799Z,22.10
2018-07-10T16:04:32.470Z,22.00
2018-07-10T16:07:01.077Z,22.10
2018-07-10T16:09:29.960Z,22.40
2018-07-10T16:12:03.239Z,22.40
2018-07-10T16:14:31.927Z,22.30
2018-07-10T16:17:02.385Z,22.40
2018-07-10T16:19:36.766Z,22.30
2018-07-10T16:22:10.639Z,21.90
2018-07-10T16:24:43.319Z,21.70
2018-07-10T16:27:11.825Z,21.70
2018-07-10T16:29:40.958Z,21.70
2018-07-10T16:32:09.271Z,21.40
2018-07-10T16:34:37.567Z,21.10
2018-07-10T16:37:05.875Z,21.10
2018-07-10T16:39:34.177Z,21.00
2018-07-10T16:42:09.141Z,21.10
2018-07-10T16:44:38.106Z,21.00
2018-07-10T16:47:09.613Z,21.10
2018-07-10T16:49:41.827Z,21.00
2018-07-10T16:52:18.107Z,20.90
2018-07-10T16:54:47.524Z,21.20
2018-07-10T16:57:15.812Z,21.10
2018-07-10T16:59:44.130Z,20.90
2018-07-10T17:02:14.175Z,20.70
2018-07-10T17:04:42.646Z,20.80
2018-07-10T17:07:11.016Z,20.70
2018-07-10T17:09:39.375Z,20.60
2018-07-10T17:12:07.664Z,20.50
2018-07-10T17:14:36.035Z,20.50
2018-07-10T17:17:08.658Z,20.40
2018-07-10T17:19:37.015Z,20.50
2018-07-10T17:22:05.489Z,20.30
2018-07-10T17:24:33.805Z,20.20
2018-07-10T17:27:02.590Z,20.20
2018-07-10T17:29:31.099Z,20.20
2018-07-10T17:31:59.565Z,20.10
2018-07-10T17:34:28.050Z,19.90
2018-07-10T17:36:56.334Z,19.90
2018-07-10T17:39:25.977Z,19.80
2018-07-10T17:41:54.440Z,19.70
2018-07-10T17:44:24.868Z,19.70
2018-07-10T17:46:53.402Z,19.60
2018-07-10T17:49:22.750Z,19.50
2018-07-10T17:51:51.134Z,19.50
2018-07-10T17:54:19.516Z,19.50
2018-07-10T17:56:47.898Z,19.40
2018-07-10T17:59:16.471Z,19.40
2018-07-10T18:01:44.862Z,19.40
2018-07-10T18:06:41.305Z,19.40
2018-07-10T18:09:10.287Z,19.30
2018-07-10T18:11:38.952Z,19.30
2018-07-10T18:14:07.290Z,19.30
2018-07-10T18:16:36.324Z,19.30
2018-07-10T18:21:34.911Z,19.20
2018-07-10T18:24:03.408Z,19.10
2018-07-10T18:26:32.120Z,19.10
2018-07-10T18:29:19.603Z,19.00
2018-07-10T18:31:49.315Z,19.00
2018-07-10T18:34:17.643Z,18.90
2018-07-10T18:36:46.863Z,18.80
2018-07-10T18:39:16.016Z,18.80
2018-07-10T18:41:44.374Z,18.80
2018-07-10T18:44:12.685Z,18.80
2018-07-10T18:46:41.033Z,18.80
2018-07-10T18:49:09.338Z,18.70
2018-07-10T18:51:38.564Z,18.60
2018-07-10T18:54:06.907Z,18.60
2018-07-10T18:56:35.286Z,18.60
2018-07-10T18:59:06.051Z,18.50
2018-07-10T19:01:42.804Z,18.50
2018-07-10T19:04:11.138Z,18.40
2018-07-10T19:06:39.446Z,18.40
2018-07-10T19:09:11.703Z,18.30
2018-07-10T19:11:40.079Z,18.40
2018-07-10T19:14:08.439Z,18.30
2018-07-10T19:16:36.722Z,18.30
2018-07-10T19:19:05.065Z,18.30
2018-07-10T19:21:39.036Z,18.20
2018-07-10T19:24:24.933Z,18.20
2018-07-10T19:26:53.751Z,18.10
2018-07-10T19:29:27.622Z,18.10
2018-07-10T19:31:55.894Z,18.00
2018-07-10T19:34:24.169Z,18.00
2018-07-10T19:36:52.560Z,18.00
2018-07-10T19:39:20.847Z,17.90
2018-07-10T19:41:49.726Z,17.90
2018-07-10T19:44:18.369Z,17.90
2018-07-10T19:46:46.946Z,17.80
2018-07-10T19:49:17.243Z,17.80
2018-07-10T19:51:48.760Z,17.70
2018-07-10T19:54:17.396Z,17.70
2018-07-10T19:56:46.093Z,17.60
2018-07-10T19:59:15.142Z,17.60
2018-07-10T20:01:53.507Z,17.70
2018-07-10T20:04:27.208Z,17.60
2018-07-10T20:07:14.235Z,17.60
2018-07-10T20:09:53.776Z,17.50
2018-07-10T20:12:29.713Z,17.50
2018-07-10T20:15:44.311Z,17.40
2018-07-10T20:18:21.965Z,17.40
2018-07-10T20:22:02.799Z,17.40
2018-07-10T20:24:31.825Z,17.30
2018-07-10T20:27:10.153Z,17.30
2018-07-10T20:29:51.694Z,17.20
2018-07-10T20:32:31.104Z,17.30
2018-07-10T20:35:07.344Z,17.20
2018-07-10T20:40:03.830Z,17.10
2018-07-10T20:42:38.547Z,17.00
2018-07-10T20:45:08.136Z,17.00
2018-07-10T20:47:45.897Z,16.90
2018-07-10T20:50:17.207Z,17.00
2018-07-10T20:52:54.024Z,16.90
2018-07-10T20:55:24.601Z,16.80
2018-07-10T20:58:03.230Z,16.90
2018-07-10T21:00:37.410Z,16.80
2018-07-10T21:04:20.187Z,16.70
2018-07-10T21:06:57.918Z,16.60
2018-07-10T21:10:39.191Z,16.40
2018-07-10T21:13:11.452Z,16.30
2018-07-10T21:15:47.883Z,16.30
2018-07-10T21:18:22.238Z,16.30
2018-07-10T21:21:05.556Z,16.30
2018-07-10T21:23:46.541Z,16.20
2018-07-10T21:26:26.362Z,16.20
2018-07-10T21:28:56.030Z,16.20
2018-07-10T21:34:07.854Z,16.10
2018-07-10T21:36:45.587Z,16.10
2018-07-10T21:39:16.659Z,16.20
2018-07-10T21:41:58.505Z,16.10
2018-07-10T21:44:40.670Z,16.10
2018-07-10T21:47:21.295Z,16.10
2018-07-10T21:49:52.443Z,16.10
2018-07-10T21:52:20.674Z,16.00
2018-07-10T21:54:48.974Z,16.00
2018-07-10T21:57:18.382Z,16.00
2018-07-10T21:59:50.806Z,16.10
2018-07-10T22:02:19.082Z,16.10
2018-07-10T22:04:47.691Z,16.10
2018-07-10T22:07:16.532Z,16.10
2018-07-10T22:09:45.087Z,16.00
2018-07-10T22:12:16.899Z,16.00
2018-07-10T22:14:45.359Z,16.00
2018-07-10T22:17:14.671Z,16.00
2018-07-10T22:19:45.366Z,16.00
2018-07-10T22:22:17.290Z,16.00
2018-07-10T22:24:45.644Z,16.00
2018-07-10T22:27:13.942Z,15.90
2018-07-10T22:29:47.630Z,15.90
2018-07-10T22:32:21.417Z,15.90
2018-07-10T22:34:49.692Z,15.90
2018-07-10T22:37:17.962Z,15.80
2018-07-10T22:39:46.231Z,15.80
2018-07-10T22:42:14.580Z,15.80
2018-07-10T22:44:47.110Z,15.80
2018-07-10T22:47:16.884Z,15.80
2018-07-10T22:49:46.124Z,15.80
2018-07-10T22:52:14.405Z,15.70
2018-07-10T22:54:42.687Z,15.60
2018-07-10T22:57:12.234Z,15.60
2018-07-10T22:59:40.881Z,15.60
2018-07-10T23:02:10.233Z,15.50
2018-07-10T23:04:38.902Z,15.50
2018-07-10T23:07:07.838Z,15.50
2018-07-10T23:09:36.150Z,15.60
2018-07-10T23:12:04.458Z,15.60
2018-07-10T23:14:33.347Z,15.60
2018-07-10T23:17:01.870Z,15.60
2018-07-10T23:19:30.187Z,15.60
2018-07-10T23:21:58.491Z,15.60
2018-07-10T23:24:26.794Z,15.60
2018-07-10T23:26:55.106Z,15.50
2018-07-10T23:31:55.769Z,15.50
2018-07-10T23:34:24.102Z,15.50
2018-07-10T23:36:56.268Z,15.40
2018-07-10T23:40:31.954Z,15.40
2018-07-10T23:43:00.248Z,15.40
2018-07-10T23:45:28.557Z,15.30
2018-07-10T23:48:03.713Z,15.30
2018-07-10T23:50:33.083Z,15.40
2018-07-10T23:54:05.771Z,15.40
2018-07-10T23:56:34.070Z,15.30
2018-07-10T23:59:02.350Z,15.30
